Terminal Aerodrome Forecast
Issued by NWS

Home | Current Version | Previous Version | Text Only | Print | Product List | Glossary On
Versions: 1 2 3 4 5 6 7 8 9 10 11 12 13 14 15 16 17 18 19 20 21 22 23 24 25 26 27 28
000
FTUS46 KPDT 171700 AAA
TAFDLS
TAF AMD
KDLS 171758Z 1718/1818 11003KT 5SM BR VCSH OVC015
     FM180200 11002KT 4SM -RA BR SCT007 OVC010
     FM180700 00000KT 2SM BR OVC007
     FM181600 00000KT 3SM BR OVC009=

USA.gov is the U.S. government's official web portal to all federal, state and local government web resources and services.